Time;durP1;ratioP1;P1;durP2;ratioP2;P2;SDS_P1;SDS_P2;PMS_P1;PMS_P2;Temp;Humidity;BMP_temperature;BMP_pressure;BME280_temperature;BME280_humidity;BME280_pressure;Samples;Min_cycle;Max_cycle;Signal;HPM_P1;HPM_P2
2022/02/13 00:01:18;;;;;;;;;28.00;24.00;;;;;4.89;60.00;101260.22;6320092;22;45646;-87
2022/02/13 00:03:44;;;;;;;;;22.67;20.00;;;;;4.87;59.89;101255.69;6321911;22;44774;-87
2022/02/13 00:06:10;;;;;;;;;25.00;25.00;;;;;5.09;60.38;101278.63;6323672;22;45343;-87
2022/02/13 00:08:35;;;;;;;;;22.00;19.00;;;;;5.08;59.93;101279.50;6317942;22;46881;-87
2022/02/13 00:11:03;;;;;;;;;24.67;22.67;;;;;4.94;60.37;101253.41;6321585;22;45184;-87
2022/02/13 00:13:32;;;;;;;;;26.33;24.33;;;;;5.10;60.08;101275.19;6293645;22;45729;-87
2022/02/13 00:16:17;;;;;;;;;24.00;22.00;;;;;5.06;59.70;101260.06;6321046;22;45310;-87
2022/02/13 00:18:44;;;;;;;;;29.00;22.33;;;;;5.09;60.13;101260.19;6318809;22;45364;-87
2022/02/13 00:21:10;;;;;;;;;22.00;21.67;;;;;4.89;59.95;101233.84;6292331;22;45306;-87
2022/02/13 00:23:35;;;;;;;;;25.00;22.33;;;;;4.84;60.23;101222.19;6321055;22;45238;-87
2022/02/13 00:26:01;;;;;;;;;23.67;22.00;;;;;5.06;61.19;101268.88;6292191;22;45270;-87
2022/02/13 00:28:26;;;;;;;;;25.33;24.00;;;;;4.88;61.79;101236.41;6291925;22;47831;-88
2022/02/13 00:30:53;;;;;;;;;21.33;21.33;;;;;4.90;61.19;101248.81;6291941;22;45666;-87
2022/02/13 00:33:19;;;;;;;;;26.00;24.33;;;;;5.04;61.79;101269.63;6290692;22;44808;-87
2022/02/13 00:35:46;;;;;;;;;22.00;20.33;;;;;4.75;61.32;101213.88;6290917;22;45431;-87
2022/02/13 00:38:32;;;;;;;;;25.67;24.00;;;;;5.07;61.74;101253.94;6292179;22;45456;-87
2022/02/13 00:40:58;;;;;;;;;28.00;21.33;;;;;4.96;61.28;101235.03;6318447;22;45426;-87
2022/02/13 00:43:24;;;;;;;;;21.33;21.33;;;;;5.01;61.46;101239.66;6316711;22;45308;-87
2022/02/13 00:45:49;;;;;;;;;22.33;18.67;;;;;5.10;61.45;101239.16;6318087;22;45626;-87
2022/02/13 00:51:36;;;;;;;;;24.00;21.00;;;;;5.01;61.14;101197.50;6317592;22;45593;-88
2022/02/13 00:54:02;;;;;;;;;23.67;20.67;;;;;5.15;60.39;101210.34;6316567;22;44739;-88
2022/02/13 00:56:27;;;;;;;;;16.33;15.33;;;;;5.03;60.46;101191.38;6290721;22;45801;-87
2022/02/13 00:58:53;;;;;;;;;19.00;17.00;;;;;4.89;60.35;101159.13;6286738;22;46830;-88
2022/02/13 01:01:20;;;;;;;;;25.33;21.67;;;;;5.14;59.59;101192.75;6288998;22;45270;-88
2022/02/13 01:03:54;;;;;;;;;20.33;19.00;;;;;5.28;59.54;101199.53;6261548;22;45309;-87
2022/02/13 01:06:19;;;;;;;;;18.00;15.33;;;;;5.18;59.96;101194.69;6289458;22;44862;-88
2022/02/13 01:08:54;;;;;;;;;18.00;17.67;;;;;5.29;59.53;101201.34;6288289;22;45915;-88
2022/02/13 01:14:45;;;;;;;;;19.67;17.67;;;;;5.22;60.00;101180.81;6288733;22;45222;-87
2022/02/13 01:17:10;;;;;;;;;18.33;18.00;;;;;5.33;60.08;101200.63;6261316;22;45322;-87
2022/02/13 01:19:36;;;;;;;;;17.67;17.00;;;;;5.13;59.97;101170.78;6261037;22;45580;-87
2022/02/13 01:22:04;;;;;;;;;19.00;17.33;;;;;5.18;59.76;101165.69;6261792;22;45169;-87
2022/02/13 01:24:31;;;;;;;;;15.33;15.33;;;;;5.27;59.33;101179.28;6287235;22;45730;-87
2022/02/13 01:26:56;;;;;;;;;16.67;15.67;;;;;5.22;59.58;101173.78;6260363;22;45318;-87
2022/02/13 01:29:22;;;;;;;;;17.00;15.67;;;;;5.03;60.12;101133.38;6287189;22;45203;-88
2022/02/13 01:31:50;;;;;;;;;19.67;18.00;;;;;5.34;60.45;101181.31;6258130;22;44621;-87
2022/02/13 01:34:18;;;;;;;;;18.00;17.33;;;;;5.34;59.81;101186.59;6286706;22;45571;-87
2022/02/13 01:36:45;;;;;;;;;16.00;16.00;;;;;5.05;59.73;101127.38;6286127;22;45294;-87
2022/02/13 01:39:11;;;;;;;;;14.67;14.67;;;;;5.32;59.32;101172.44;6281496;22;45376;-87
2022/02/13 01:41:37;;;;;;;;;16.67;16.67;;;;;5.22;59.96;101159.69;6259099;22;45217;-87
2022/02/13 01:44:20;;;;;;;;;17.00;17.00;;;;;5.32;60.50;101172.44;6260164;22;45436;-87
2022/02/13 01:46:46;;;;;;;;;21.33;19.67;;;;;5.21;60.05;101158.81;6259999;22;45298;-87
2022/02/13 01:49:12;;;;;;;;;22.00;19.33;;;;;5.34;59.76;101181.31;6260944;22;45334;-87
2022/02/13 01:51:37;;;;;;;;;21.67;16.67;;;;;5.30;60.01;101173.22;6261596;22;45800;-86
2022/02/13 01:54:03;;;;;;;;;17.00;14.33;;;;;5.30;59.79;101182.03;6262205;22;44791;-87
2022/02/13 01:56:32;;;;;;;;;17.00;16.33;;;;;5.20;59.86;101162.25;6262824;22;45350;-86
2022/02/13 01:59:00;;;;;;;;;21.67;17.67;;;;;5.32;60.10;101177.72;6276604;22;46720;-87
2022/02/13 02:01:27;;;;;;;;;17.33;16.67;;;;;5.25;60.12;101174.75;6321369;22;45282;-86
2022/02/13 02:03:52;;;;;;;;;17.67;17.67;;;;;5.05;60.91;101140.53;6295597;22;45274;-87
2022/02/13 02:06:18;;;;;;;;;22.67;22.67;;;;;5.02;60.00;101135.13;6323968;22;44868;-87
2022/02/13 02:08:45;;;;;;;;;25.00;21.67;;;;;4.90;60.66;101114.41;6323376;22;45321;-87
2022/02/13 02:11:17;;;;;;;;;18.67;18.33;;;;;5.02;60.56;101153.56;6288830;22;45340;-86
2022/02/13 02:13:42;;;;;;;;;22.00;20.33;;;;;4.90;60.01;101121.41;6320936;22;45264;-87
2022/02/13 02:16:12;;;;;;;;;30.00;27.67;;;;;5.10;61.10;101154.81;6296968;22;45421;-87
2022/02/13 02:18:38;;;;;;;;;25.00;23.33;;;;;4.74;60.93;101102.31;6324506;22;45432;-86
2022/02/13 02:21:09;;;;;;;;;20.33;17.67;;;;;4.76;61.73;101115.56;6296692;22;44720;-86
2022/02/13 02:23:39;;;;;;;;;20.67;20.67;;;;;4.86;61.35;101136.19;6295690;22;44699;-86
2022/02/13 02:26:05;;;;;;;;;28.00;25.33;;;;;4.58;62.62;101103.38;6295203;22;45346;-86
2022/02/13 02:28:34;;;;;;;;;26.67;24.33;;;;;4.67;62.03;101115.16;6289850;22;46664;-86
2022/02/13 02:31:00;;;;;;;;;29.33;25.67;;;;;4.46;63.11;101083.50;6314141;22;45384;-87
2022/02/13 02:33:27;;;;;;;;;28.33;27.00;;;;;4.35;63.16;101075.13;6291226;22;45342;-87
2022/02/13 02:35:54;;;;;;;;;30.33;29.00;;;;;4.37;62.47;101084.00;6292299;22;45202;-87
2022/02/13 02:38:19;;;;;;;;;21.00;21.00;;;;;4.30;63.65;101081.91;6291587;22;46999;-86
2022/02/13 02:40:45;;;;;;;;;30.00;28.33;;;;;4.27;64.12;101081.78;6319109;22;45259;-86
2022/02/13 02:43:10;;;;;;;;;27.67;25.00;;;;;4.41;63.93;101109.63;6290290;22;45356;-86
2022/02/13 02:45:36;;;;;;;;;20.00;17.33;;;;;4.11;64.14;101053.88;6288411;22;45437;-86
2022/02/13 02:48:01;;;;;;;;;25.67;23.33;;;;;4.32;64.14;101093.41;6319097;22;46037;-86
2022/02/13 02:50:27;;;;;;;;;24.00;23.33;;;;;4.12;64.11;101067.09;6319833;22;45238;-86
2022/02/13 02:52:53;;;;;;;;;25.67;21.00;;;;;4.26;64.47;101101.03;6292104;22;44920;-86
2022/02/13 02:55:19;;;;;;;;;23.00;23.00;;;;;4.13;64.69;101068.88;6292279;22;44871;-86
2022/02/13 02:57:46;;;;;;;;;23.33;20.67;;;;;4.12;65.20;101072.38;6291543;22;46807;-87
2022/02/13 03:03:33;;;;;;;;;24.00;22.00;;;;;4.16;65.00;101090.09;6288143;22;45471;-87
2022/02/13 03:06:00;;;;;;;;;28.00;23.33;;;;;3.89;65.02;101041.47;6260415;22;45325;-86
2022/02/13 03:08:26;;;;;;;;;23.00;21.00;;;;;4.05;64.97;101070.28;6259316;22;47166;-86
2022/02/13 03:10:52;;;;;;;;;23.33;18.33;;;;;4.03;65.38;101071.03;6258396;22;45456;-87
2022/02/13 03:16:39;;;;;;;;;25.33;25.33;;;;;4.00;65.67;101061.28;6285981;22;45283;-87
2022/02/13 03:19:08;;;;;;;;;26.00;23.00;;;;;4.02;66.29;101054.38;6257821;22;46877;-87
2022/02/13 03:21:33;;;;;;;;;28.00;22.25;;;;;3.94;66.93;101048.75;6257922;22;45352;-86
2022/02/13 03:23:59;;;;;;;;;30.00;26.33;;;;;3.98;66.81;101052.44;6258937;22;45486;-86
2022/02/13 03:33:08;;;;;;;;;29.00;25.00;;;;;3.90;66.80;101040.63;6286420;22;45683;-87
2022/02/13 03:35:34;;;;;;;;;23.33;19.67;;;;;3.91;66.96;101047.69;6284045;22;45321;-86
2022/02/13 03:38:00;;;;;;;;;29.25;27.00;;;;;3.88;67.39;101039.66;6258743;22;45263;-86
2022/02/13 03:40:25;;;;;;;;;25.67;23.67;;;;;3.81;66.85;101039.38;6258301;22;47003;-86
2022/02/13 03:42:51;;;;;;;;;32.75;32.75;;;;;3.85;67.77;101047.41;6260500;22;45148;-87
2022/02/13 03:45:20;;;;;;;;;26.25;23.50;;;;;3.84;67.69;101035.06;6260646;22;45428;-86
2022/02/13 03:47:45;;;;;;;;;26.75;25.50;;;;;3.61;67.55;101013.88;6287268;22;45320;-87
2022/02/13 03:50:11;;;;;;;;;29.50;24.00;;;;;3.46;67.58;100981.63;6260841;22;46875;-87
2022/02/13 03:52:37;;;;;;;;;33.00;24.00;;;;;3.64;67.45;101005.25;6286438;22;45289;-86
2022/02/13 03:55:04;;;;;;;;;26.67;23.00;;;;;3.46;67.36;100979.00;6288375;22;44669;-87
2022/02/13 03:57:29;;;;;;;;;16.00;16.00;;;;;3.65;67.45;101010.56;6260725;22;45039;-87
2022/02/13 03:59:56;;;;;;;;;28.33;28.33;;;;;3.74;68.00;101029.41;6272202;22;46998;-86
2022/02/13 04:02:22;;;;;;;;;29.67;25.00;;;;;3.55;67.84;100992.56;6261560;22;45287;-86
2022/02/13 04:04:49;;;;;;;;;28.00;24.00;;;;;3.61;67.59;100998.09;6261219;22;45451;-86
2022/02/13 04:07:15;;;;;;;;;25.67;24.00;;;;;3.46;68.35;100972.00;6260894;22;45733;-86
2022/02/13 04:09:41;;;;;;;;;21.67;21.67;;;;;3.57;67.90;100993.53;6261227;22;47759;-86
2022/02/13 04:12:07;;;;;;;;;26.00;23.00;;;;;3.62;67.97;100997.28;6261012;22;45338;-86
2022/02/13 04:14:32;;;;;;;;;24.33;19.00;;;;;3.43;68.25;100965.69;6261805;22;44801;-86
2022/02/13 04:16:58;;;;;;;;;25.00;23.00;;;;;3.43;68.23;100966.59;6287745;22;44658;-86
2022/02/13 04:19:23;;;;;;;;;16.67;15.33;;;;;3.49;68.08;100982.66;6283121;22;45585;-87
2022/02/13 04:21:49;;;;;;;;;22.67;20.00;;;;;3.41;69.12;100960.34;6288795;22;45806;-87
2022/02/13 04:24:14;;;;;;;;;27.00;20.00;;;;;3.65;68.47;101007.94;6261480;22;45386;-87
2022/02/13 04:26:43;;;;;;;;;27.33;25.67;;;;;3.59;68.47;100984.88;6261490;22;44823;-86
2022/02/13 04:29:10;;;;;;;;;28.33;27.00;;;;;3.67;68.65;101001.00;6287937;22;46297;-86
2022/02/13 04:31:39;;;;;;;;;23.67;22.67;;;;;3.39;68.72;100956.75;6287963;22;45744;-87
2022/02/13 04:34:12;;;;;;;;;18.67;18.67;;;;;3.44;69.42;100949.09;6279959;22;45306;-87
2022/02/13 04:36:42;;;;;;;;;18.67;17.00;;;;;3.34;69.60;100946.03;6290772;22;45302;-87
2022/02/13 04:39:08;;;;;;;;;15.33;15.33;;;;;3.35;69.52;100941.66;6262005;22;46675;-87
2022/02/13 04:41:34;;;;;;;;;30.67;25.67;;;;;3.62;69.37;100992.03;6289093;22;45606;-86
2022/02/13 04:44:00;;;;;;;;;23.67;22.67;;;;;3.55;69.49;100963.63;6261751;22;44778;-85
2022/02/13 04:46:28;;;;;;;;;30.33;29.33;;;;;3.36;69.16;100922.47;6289136;22;45138;-86
2022/02/13 04:48:54;;;;;;;;;21.67;20.33;;;;;3.55;70.19;100974.16;6260408;22;48188;-86
2022/02/13 04:51:20;;;;;;;;;30.33;23.67;;;;;3.24;69.08;100917.53;6260018;22;44625;-87
2022/02/13 04:53:45;;;;;;;;;27.00;24.00;;;;;3.29;69.78;100931.81;6258986;22;45377;-86
2022/02/13 04:56:11;;;;;;;;;29.33;26.33;;;;;3.34;70.08;100925.00;6260769;22;45302;-87
2022/02/13 04:59:05;;;;;;;;;26.00;23.33;;;;;3.55;69.23;100955.75;6286692;22;46403;-86
2022/02/13 05:01:30;;;;;;;;;26.33;25.33;;;;;3.32;69.27;100913.53;6260575;22;45311;-86
2022/02/13 05:03:56;;;;;;;;;21.33;19.67;;;;;3.25;69.76;100897.41;6261344;22;45434;-86
2022/02/13 05:06:22;;;;;;;;;23.00;22.33;;;;;3.49;70.23;100945.84;6289103;22;45385;-87
2022/02/13 05:08:47;;;;;;;;;25.00;23.00;;;;;3.32;70.70;100905.63;6286820;22;45354;-87
2022/02/13 05:11:13;;;;;;;;;32.00;26.67;;;;;3.36;69.58;100923.34;6259959;22;45390;-86
2022/02/13 05:13:38;;;;;;;;;20.67;20.67;;;;;3.32;69.88;100904.75;6260111;22;45410;-87
2022/02/13 05:16:04;;;;;;;;;22.33;21.67;;;;;3.53;69.77;100933.72;6260156;22;45686;-87
2022/02/13 05:18:30;;;;;;;;;27.00;26.00;;;;;3.51;70.35;100930.13;6286418;22;46840;-87
2022/02/13 05:20:56;;;;;;;;;23.00;21.67;;;;;3.38;70.83;100908.53;6286187;22;45334;-87
2022/02/13 05:23:24;;;;;;;;;24.33;24.33;;;;;3.46;69.66;100924.69;6286431;22;45414;-87
2022/02/13 05:25:49;;;;;;;;;22.00;20.00;;;;;3.42;70.41;100911.34;6259903;22;45235;-87
2022/02/13 05:28:15;;;;;;;;;21.33;21.00;;;;;3.20;70.58;100887.56;6259657;22;47510;-87
2022/02/13 05:30:41;;;;;;;;;24.00;22.33;;;;;3.22;71.02;100895.53;6259732;22;45927;-87
2022/02/13 05:33:06;;;;;;;;;26.67;25.67;;;;;3.14;71.18;100870.63;6258882;22;44718;-87
2022/02/13 05:35:35;;;;;;;;;26.00;19.33;;;;;3.29;71.12;100902.88;6287453;22;45401;-87
2022/02/13 05:38:01;;;;;;;;;17.33;17.33;;;;;3.12;70.98;100872.28;6259782;22;46608;-87
2022/02/13 05:40:28;;;;;;;;;20.33;19.33;;;;;3.26;71.62;100897.47;6287935;22;45346;-87
2022/02/13 05:42:57;;;;;;;;;22.33;20.67;;;;;3.23;71.76;100894.69;6287239;22;45381;-86
2022/02/13 05:45:24;;;;;;;;;21.67;21.67;;;;;3.06;72.20;100858.88;6289951;22;45567;-88
2022/02/13 05:47:50;;;;;;;;;26.75;20.50;;;;;2.92;72.18;100848.59;6290137;22;46264;-86
2022/02/13 05:50:22;;;;;;;;;25.33;24.00;;;;;2.85;72.36;100843.91;6263425;22;45763;-86
2022/02/13 05:52:59;;;;;;;;;21.00;20.75;;;;;2.82;72.30;100827.09;6261794;22;45300;-87
2022/02/13 05:55:29;;;;;;;;;27.50;23.50;;;;;3.16;72.65;100893.50;6289937;22;45489;-88
2022/02/13 05:57:55;;;;;;;;;28.33;25.67;;;;;3.03;72.76;100863.97;6262182;22;46905;-86
2022/02/13 06:00:20;;;;;;;;;21.50;21.50;;;;;3.03;72.42;100864.88;6254719;22;46340;-87
2022/02/13 06:02:46;;;;;;;;;29.25;28.25;;;;;3.11;72.76;100886.25;6258987;22;45339;-87
2022/02/13 06:05:12;;;;;;;;;25.00;24.00;;;;;3.11;72.64;100886.25;6260324;22;45572;-88
2022/02/13 06:07:42;;;;;;;;;22.00;22.00;;;;;3.07;72.14;100866.84;6287965;22;45448;-88
2022/02/13 06:10:09;;;;;;;;;30.00;29.00;;;;;2.87;72.86;100834.38;6287289;22;45335;-88
2022/02/13 06:12:35;;;;;;;;;18.25;18.25;;;;;3.13;72.38;100885.50;6261235;22;45369;-87
2022/02/13 06:15:01;;;;;;;;;25.00;22.33;;;;;2.95;72.23;100858.34;6254698;22;45269;-86
2022/02/13 06:17:27;;;;;;;;;16.67;15.33;;;;;2.83;72.52;100845.56;6250660;22;46545;-85
2022/02/13 06:19:52;;;;;;;;;18.00;18.00;;;;;2.80;72.63;100830.53;6261466;22;44872;-87
2022/02/13 06:22:18;;;;;;;;;21.33;16.67;;;;;3.03;72.75;100863.97;6288681;22;44837;-87
2022/02/13 06:24:44;;;;;;;;;22.00;19.33;;;;;2.79;72.89;100827.88;6289449;22;44809;-87
2022/02/13 06:27:09;;;;;;;;;27.67;22.33;;;;;3.08;72.96;100879.13;6261002;22;47646;-87
2022/02/13 06:29:35;;;;;;;;;23.00;22.00;;;;;3.03;72.81;100869.22;6255580;22;45714;-86
2022/02/13 06:32:01;;;;;;;;;22.00;20.00;;;;;3.05;72.45;100875.44;6287376;22;45719;-87
2022/02/13 06:34:27;;;;;;;;;29.00;26.33;;;;;3.03;72.53;100875.41;6286435;22;45128;-87
2022/02/13 06:36:55;;;;;;;;;18.67;17.67;;;;;2.73;72.62;100827.59;6259283;22;48272;-87
2022/02/13 06:39:21;;;;;;;;;18.00;12.00;;;;;2.81;72.10;100847.22;6260036;22;45406;-87
2022/02/13 06:41:49;;;;;;;;;20.33;17.67;;;;;2.76;72.51;100832.97;6260731;22;45354;-86
2022/02/13 06:44:15;;;;;;;;;24.00;22.00;;;;;2.87;72.19;100852.75;6287640;22;45426;-87
2022/02/13 06:46:41;;;;;;;;;15.00;14.00;;;;;2.68;72.46;100816.84;6286434;22;45350;-86
2022/02/13 06:49:12;;;;;;;;;18.00;18.00;;;;;2.80;72.46;100829.66;6284676;22;45278;-86
2022/02/13 06:51:38;;;;;;;;;16.00;16.00;;;;;2.62;72.26;100794.66;6258765;22;45323;-86
2022/02/13 06:54:07;;;;;;;;;24.00;24.00;;;;;2.91;72.72;100852.09;6259639;22;44864;-88
2022/02/13 06:56:32;;;;;;;;;23.33;22.33;;;;;2.88;72.77;100838.78;6288237;22;45074;-86
2022/02/13 06:58:58;;;;;;;;;21.00;18.33;;;;;2.70;71.80;100803.78;6263237;22;45276;-86
2022/02/13 07:01:23;;;;;;;;;23.67;23.67;;;;;2.62;72.50;100790.28;6286715;22;45328;-86
2022/02/13 07:03:49;;;;;;;;;25.00;18.67;;;;;2.76;72.44;100823.34;6289193;22;45736;-86
2022/02/13 07:06:15;;;;;;;;;26.00;22.33;;;;;2.77;72.04;100809.41;6287698;22;46759;-86
2022/02/13 07:08:40;;;;;;;;;22.33;18.33;;;;;2.88;72.26;100823.03;6286442;22;45686;-86
2022/02/13 07:11:07;;;;;;;;;25.67;22.00;;;;;2.70;71.92;100795.91;6286692;22;45326;-87
2022/02/13 07:13:33;;;;;;;;;22.00;21.67;;;;;2.70;72.25;100795.91;6262032;22;45479;-87
2022/02/13 07:15:59;;;;;;;;;17.67;17.00;;;;;2.61;72.10;100775.38;6285954;22;47017;-87
2022/02/13 07:18:24;;;;;;;;;22.67;22.00;;;;;2.58;72.14;100760.38;6290288;22;45492;-87
2022/02/13 07:20:53;;;;;;;;;21.00;18.00;;;;;2.64;72.32;100777.25;6290438;22;45431;-87
2022/02/13 07:23:25;;;;;;;;;21.00;18.67;;;;;2.87;71.98;100808.13;6289504;22;45274;-87
2022/02/13 07:26:00;;;;;;;;;21.67;18.33;;;;;2.78;71.42;100795.44;6290087;22;46494;-86
2022/02/13 07:31:10;;;;;;;;;22.00;18.00;;;;;2.91;71.46;100804.78;6291398;22;45307;-86
2022/02/13 07:33:36;;;;;;;;;23.00;19.33;;;;;3.02;71.32;100814.91;6288468;22;44850;-88
2022/02/13 07:36:01;;;;;;;;;22.00;18.67;;;;;2.83;70.65;100778.97;6287425;22;46799;-86
2022/02/13 07:38:27;;;;;;;;;21.00;17.67;;;;;3.05;70.90;100821.19;6287208;22;45239;-86
2022/02/13 07:40:56;;;;;;;;;21.00;18.00;;;;;3.09;70.30;100815.25;6287261;22;45363;-86
2022/02/13 07:43:53;;;;;;;;;29.00;19.67;;;;;2.88;70.23;100769.59;6286619;22;45548;-86
2022/02/13 07:46:25;;;;;;;;;21.00;19.00;;;;;2.99;70.15;100774.53;6279802;22;47095;-86
2022/02/13 07:48:51;;;;;;;;;19.67;19.67;;;;;3.11;69.75;100783.75;6288153;22;44686;-86
2022/02/13 07:51:20;;;;;;;;;21.33;21.00;;;;;3.13;68.63;100771.59;6287546;22;45359;-86
2022/02/13 07:54:23;;;;;;;;;19.33;19.33;;;;;3.30;69.38;100789.00;6287772;22;45658;-87
2022/02/13 07:56:56;;;;;;;;;22.00;18.33;;;;;3.08;68.75;100752.13;6287815;22;47803;-88
2022/02/13 07:59:25;;;;;;;;;20.67;18.00;;;;;3.28;68.87;100772.28;6286600;22;45497;-87
2022/02/13 08:01:51;;;;;;;;;5.00;4.67;;;;;3.09;68.39;100718.03;6290115;22;45404;-87
2022/02/13 08:04:16;;;;;;;;;20.33;17.33;;;;;3.35;67.94;100755.97;6290421;22;44896;-88
2022/02/13 08:07:25;;;;;;;;;15.67;13.33;;;;;3.56;67.82;100762.97;6289148;22;45282;-87
2022/02/13 08:09:57;;;;;;;;;21.00;19.00;;;;;3.62;67.68;100768.47;6290799;22;45286;-88
2022/02/13 08:12:23;;;;;;;;;22.00;20.00;;;;;3.26;67.25;100705.59;6288799;22;44775;-87
2022/02/13 08:14:52;;;;;;;;;19.67;19.00;;;;;3.62;67.08;100734.28;6289003;22;45342;-87
2022/02/13 08:17:22;;;;;;;;;21.67;21.67;;;;;3.71;67.50;100742.56;6290735;22;45394;-87
2022/02/13 08:20:24;;;;;;;;;18.00;15.67;;;;;3.84;67.71;100738.72;6288731;22;45372;-87
2022/02/13 08:22:58;;;;;;;;;19.00;19.00;;;;;3.81;67.62;100734.19;6288046;22;45487;-87
2022/02/13 08:25:27;;;;;;;;;19.67;19.67;;;;;3.93;67.17;100743.44;6280543;22;45423;-87
2022/02/13 08:27:52;;;;;;;;;26.00;23.67;;;;;3.86;67.44;100720.34;6285794;22;45710;-88
2022/02/13 08:30:40;;;;;;;;;25.00;22.67;;;;;3.98;67.74;100731.38;6282426;22;45829;-88
2022/02/13 08:33:04;;;;;;;;;19.00;18.33;;;;;3.83;67.35;100686.91;6285272;22;45340;-87
2022/02/13 08:35:29;;;;;;;;;19.00;19.00;;;;;4.15;66.79;100722.41;6282698;22;45940;-88
2022/02/13 08:38:00;;;;;;;;;20.00;20.00;;;;;3.98;66.71;100684.03;6281815;22;47448;-87
2022/02/13 08:40:26;;;;;;;;;23.00;20.00;;;;;4.04;66.86;100688.59;6282886;22;45473;-88
2022/02/13 08:43:23;;;;;;;;;20.67;19.33;;;;;4.40;66.85;100716.38;6283579;22;45005;-88
2022/02/13 08:46:01;;;;;;;;;;;;;;;;;;;;;
2022/02/13 08:48:34;;;;;;;;;26.00;23.33;;;;;4.37;67.67;100687.28;6145245;22;75556;-86
2022/02/13 08:50:59;;;;;;;;;26.67;24.00;;;;;4.38;68.23;100686.47;6221334;22;45414;-87
2022/02/13 08:53:25;;;;;;;;;25.67;23.33;;;;;4.66;67.94;100708.56;6193769;22;45537;-88
2022/02/13 08:55:50;;;;;;;;;27.00;25.33;;;;;4.46;67.77;100659.50;6195883;22;45269;-88
2022/02/13 08:58:20;;;;;;;;;20.67;19.67;;;;;4.57;68.27;100664.34;6220761;22;45394;-88
2022/02/13 09:00:59;;;;;;;;;23.33;21.67;;;;;4.66;68.63;100652.34;6193880;22;45500;-88
2022/02/13 09:03:33;;;;;;;;;20.00;20.00;;;;;4.90;68.46;100687.47;6189443;23;45294;-88
2022/02/13 09:06:05;;;;;;;;;24.00;24.00;;;;;4.91;69.11;100667.28;6190026;23;45432;-88
2022/02/13 09:08:34;;;;;;;;;19.67;18.33;;;;;5.09;69.31;100688.13;6190106;23;46963;-87
2022/02/13 09:18:31;;;;;;;;;34.67;24.67;;;;;5.47;68.68;100670.09;6195767;22;45520;-87
2022/02/13 09:21:15;;;;;;;;;24.00;24.00;;;;;5.36;68.98;100654.81;6194343;22;47221;-87
2022/02/13 09:23:46;;;;;;;;;24.33;24.33;;;;;5.46;69.31;100620.84;6287285;22;45361;-87
2022/02/13 09:26:21;;;;;;;;;25.33;21.67;;;;;5.72;69.76;100648.97;6264126;22;45336;-87
2022/02/13 09:28:47;;;;;;;;;19.67;19.00;;;;;5.87;69.81;100618.63;6260668;22;45779;-87
2022/02/13 09:31:29;;;;;;;;;27.33;25.00;;;;;5.86;70.41;100578.16;6261805;22;46557;-87
2022/02/13 09:33:55;;;;;;;;;24.00;21.00;;;;;6.25;70.24;100609.25;6261529;22;44855;-87
2022/02/13 09:36:21;;;;;;;;;21.33;21.33;;;;;6.20;70.28;100569.53;6262678;22;45410;-87
2022/02/13 09:38:50;;;;;;;;;26.67;22.00;;;;;6.50;69.44;100584.44;6262489;22;45706;-88
2022/02/13 09:41:43;;;;;;;;;17.33;15.00;;;;;6.48;69.41;100525.38;6256958;22;46716;-87
2022/02/13 09:44:12;;;;;;;;;20.33;20.00;;;;;6.78;69.52;100554.34;6275276;22;45117;-87
2022/02/13 09:56:46;;;;;;;;;19.33;18.00;;;;;6.96;69.53;100489.59;6288595;22;45335;-87
2022/02/13 09:59:28;;;;;;;;;23.00;19.33;;;;;7.20;70.62;100518.41;6290208;22;45361;-87
2022/02/13 10:02:02;;;;;;;;;22.67;19.00;;;;;7.15;70.03;100488.28;6288546;22;45370;-87
2022/02/13 10:04:52;;;;;;;;;15.33;14.33;;;;;7.21;70.02;100464.63;6261979;22;47852;-87
2022/02/13 10:07:27;;;;;;;;;24.67;22.67;;;;;7.38;70.04;100478.25;6261704;22;45488;-87
2022/02/13 10:10:07;;;;;;;;;24.67;23.00;;;;;7.64;70.12;100507.97;6235862;22;45233;-87
2022/02/13 10:12:39;;;;;;;;;27.33;21.00;;;;;7.64;70.17;100494.72;6262878;22;45437;-87
2022/02/13 10:15:27;;;;;;;;;24.67;19.67;;;;;7.86;69.98;100492.50;6263467;22;46640;-87
2022/02/13 10:17:58;;;;;;;;;22.33;19.00;;;;;7.81;69.73;100473.91;6289468;22;45686;-87
2022/02/13 10:20:29;;;;;;;;;28.33;23.67;;;;;7.86;69.68;100464.31;6288965;22;45327;-87
2022/02/13 10:23:02;;;;;;;;;15.33;15.00;;;;;8.01;69.88;100459.31;6289903;22;45368;-87
2022/02/13 10:25:28;;;;;;;;;18.33;18.33;;;;;8.17;69.80;100464.91;6262326;22;47122;-87
2022/02/13 10:28:15;;;;;;;;;14.33;12.00;;;;;8.04;69.40;100426.72;6261660;22;45189;-87
2022/02/13 10:30:47;;;;;;;;;22.67;20.00;;;;;8.34;69.60;100452.88;6258448;22;45513;-87
2022/02/13 10:33:33;;;;;;;;;21.67;21.33;;;;;8.50;68.73;100454.06;6260729;22;45336;-87
2022/02/13 10:36:12;;;;;;;;;17.67;15.00;;;;;8.46;69.20;100432.78;6258984;22;46619;-87
2022/02/13 10:38:43;;;;;;;;;15.00;13.67;;;;;8.56;68.87;100437.38;6287629;22;45380;-87
2022/02/13 10:41:29;;;;;;;;;18.67;16.33;;;;;8.65;68.99;100431.38;6259565;22;45434;-87
2022/02/13 10:44:06;;;;;;;;;20.00;17.33;;;;;8.76;68.98;100437.72;6260297;22;45454;-86
2022/02/13 10:46:40;;;;;;;;;19.00;18.00;;;;;8.84;69.15;100444.03;6306321;22;47111;-87
2022/02/13 10:49:08;;;;;;;;;21.00;15.00;;;;;9.01;69.36;100462.91;6259424;22;45252;-86
2022/02/13 10:51:43;;;;;;;;;17.00;14.67;;;;;8.97;69.13;100418.63;6259964;22;44781;-86
2022/02/13 10:54:12;;;;;;;;;20.00;16.33;;;;;9.15;69.27;100424.22;6262409;22;45414;-87
2022/02/13 10:56:40;;;;;;;;;16.00;14.67;;;;;9.20;69.20;100405.69;6286343;22;46828;-87
2022/02/13 10:59:11;;;;;;;;;19.00;17.00;;;;;9.41;69.00;100418.34;6261409;22;45301;-87
2022/02/13 11:01:37;;;;;;;;;14.67;14.67;;;;;9.38;68.60;100397.97;6261660;22;45338;-87
2022/02/13 11:04:32;;;;;;;;;;;;;;;;;;;;;
2022/02/13 11:06:59;;;;;;;;;12.33;12.33;;;;;9.46;68.84;100375.97;6288121;22;73997;-86
2022/02/13 11:09:27;;;;;;;;;19.33;14.00;;;;;9.70;68.90;100397.50;6237150;22;45447;-86
2022/02/13 11:18:22;;;;;;;;;12.33;12.00;;;;;9.92;68.22;100381.81;6235877;22;45437;-87
2022/02/13 11:21:20;;;;;;;;;16.00;16.00;;;;;10.20;68.02;100397.19;6243709;22;44929;-86
2022/02/13 11:24:07;;;;;;;;;20.33;17.33;;;;;10.11;67.56;100351.00;6204134;22;45383;-87
2022/02/13 11:26:35;;;;;;;;;15.67;15.67;;;;;10.31;67.52;100359.22;6255516;22;45826;-86
2022/02/13 11:29:18;;;;;;;;;18.67;15.00;;;;;10.29;67.41;100334.34;6230028;22;46779;-87
2022/02/13 11:32:21;;;;;;;;;22.33;19.00;;;;;10.56;67.20;100355.88;6257128;22;45480;-86
2022/02/13 11:34:59;;;;;;;;;16.67;15.00;;;;;10.34;66.66;100295.44;6139734;23;45367;-86
2022/02/13 11:38:07;;;;;;;;;16.00;16.00;;;;;10.79;66.56;100337.44;6164214;23;45467;-87
2022/02/13 11:40:53;;;;;;;;;14.00;14.00;;;;;10.93;66.31;100324.22;6137958;23;46944;-87
2022/02/13 11:43:45;;;;;;;;;18.67;18.00;;;;;10.85;66.24;100288.69;6138306;23;45378;-86
2022/02/13 11:50:09;;;;;;;;;19.67;15.67;;;;;11.24;65.52;100296.88;6165767;23;45375;-87
2022/02/13 11:52:51;;;;;;;;;16.67;14.67;;;;;11.10;64.86;100248.91;6139152;23;45660;-87
2022/02/13 11:55:31;;;;;;;;;20.00;15.00;;;;;11.18;64.95;100255.13;6165467;23;44828;-87
2022/02/13 11:58:16;;;;;;;;;17.67;15.67;;;;;11.49;64.76;100265.88;6140367;23;45481;-87
2022/02/13 12:00:54;;;;;;;;;15.67;14.67;;;;;11.29;64.48;100202.84;6151341;23;45463;-87
2022/02/13 12:03:27;;;;;;;;;17.33;15.00;;;;;11.66;63.82;100245.50;6193605;22;47122;-87
2022/02/13 12:06:01;;;;;;;;;15.67;14.33;;;;;11.72;62.96;100248.19;6168571;23;44719;-87
2022/02/13 12:08:54;;;;;;;;;18.67;15.00;;;;;11.78;63.89;100248.19;6193567;23;45420;-87
2022/02/13 12:11:28;;;;;;;;;18.67;16.00;;;;;11.77;63.54;100219.75;6194469;22;45287;-87
2022/02/13 12:13:58;;;;;;;;;18.00;15.33;;;;;11.79;63.58;100186.00;6199891;22;45545;-87
2022/02/13 12:16:26;;;;;;;;;19.00;18.00;;;;;12.05;63.09;100206.47;6289879;22;45311;-87
2022/02/13 12:18:52;;;;;;;;;16.67;15.00;;;;;12.15;62.70;100194.91;6287167;22;45504;-87
2022/02/13 12:21:27;;;;;;;;;20.00;17.00;;;;;12.16;61.71;100159.38;6288218;22;45298;-87
2022/02/13 12:24:07;;;;;;;;;12.00;12.00;;;;;12.44;61.99;100193.09;6288260;22;45285;-87